Time,TemperatureF,DewpointF,PressureIn,WindDirection,WindDirectionDegrees,WindSpeedMPH,WindSpeedGustMPH,Humidity,HourlyPrecipIn,Conditions,Clouds,dailyrainin,SolarRadiationWatts/m^2,SoftwareType,DateUTC
2013-03-06 00:01:00,59.0,52.0,-100.00,South,170,6.0,8.0,77,0.00,,,0.00,0.000000,,2013-03-06 10:01:00,
2013-03-06 00:11:00,59.0,52.0,-100.00,South,170,6.0,8.0,77,0.00,,,0.00,0.000000,,2013-03-06 10:11:00,
2013-03-06 00:21:00,59.0,52.0,-100.00,South,170,6.0,8.0,77,0.00,,,0.00,0.000000,,2013-03-06 10:21:00,
2013-03-06 00:31:00,59.0,52.0,-100.00,South,170,6.0,8.0,77,0.00,,,0.00,0.000000,,2013-03-06 10:31:00,
2013-03-06 00:52:00,59.0,51.0,-100.00,South,174,8.0,11.0,74,0.00,,,0.00,0.000000,,2013-03-06 10:52:00,
2013-03-06 01:02:00,59.0,51.0,-100.00,South,174,8.0,11.0,74,0.00,,,0.00,0.000000,,2013-03-06 11:02:00,
2013-03-06 01:11:00,59.0,51.0,-100.00,South,174,8.0,11.0,74,0.00,,,0.00,0.000000,,2013-03-06 11:11:00,
2013-03-06 01:22:00,59.0,51.0,-100.00,South,174,8.0,11.0,74,0.00,,,0.00,0.000000,,2013-03-06 11:22:00,
2013-03-06 01:31:00,59.0,51.0,-100.00,South,174,8.0,11.0,74,0.00,,,0.00,0.000000,,2013-03-06 11:31:00,
2013-03-06 01:52:00,55.0,48.0,-100.00,SSE,147,2.0,11.0,78,0.00,,,0.00,0.000000,,2013-03-06 11:52:00,
2013-03-06 02:01:00,55.0,48.0,-100.00,SSE,147,2.0,11.0,78,0.00,,,0.00,0.000000,,2013-03-06 12:01:00,
2013-03-06 02:11:00,55.0,48.0,-100.00,SSE,147,2.0,11.0,78,0.00,,,0.00,0.000000,,2013-03-06 12:11:00,
2013-03-06 02:21:00,55.0,48.0,-100.00,SSE,147,2.0,11.0,78,0.00,,,0.00,0.000000,,2013-03-06 12:21:00,
2013-03-06 02:32:00,55.0,48.0,-100.00,SSE,147,2.0,11.0,78,0.00,,,0.00,0.000000,,2013-03-06 12:32:00,
2013-03-06 02:52:00,57.0,50.0,-100.00,SSE,148,7.0,11.0,78,0.00,,,0.00,0.000000,,2013-03-06 12:52:00,
2013-03-06 03:02:00,57.0,50.0,-100.00,SSE,148,7.0,11.0,78,0.00,,,0.00,0.000000,,2013-03-06 13:02:00,
2013-03-06 03:11:00,57.0,50.0,-100.00,SSE,148,7.0,11.0,78,0.00,,,0.00,0.000000,,2013-03-06 13:11:00,
2013-03-06 03:21:00,57.0,50.0,-100.00,SSE,148,7.0,11.0,78,0.00,,,0.00,0.000000,,2013-03-06 13:21:00,
2013-03-06 03:31:00,57.0,50.0,-100.00,SSE,148,7.0,11.0,78,0.00,,,0.00,0.000000,,2013-03-06 13:31:00,
2013-03-06 03:52:00,57.0,45.0,-100.00,SE,139,7.0,14.0,65,0.00,,,0.00,0.000000,,2013-03-06 13:52:00,
2013-03-06 04:01:00,57.0,45.0,-100.00,SE,139,7.0,14.0,65,0.00,,,0.00,0.000000,,2013-03-06 14:01:00,
2013-03-06 04:11:00,57.0,45.0,-100.00,SE,139,7.0,14.0,65,0.00,,,0.00,0.000000,,2013-03-06 14:11:00,
2013-03-06 04:21:00,57.0,45.0,-100.00,SE,139,7.0,14.0,65,0.00,,,0.00,0.000000,,2013-03-06 14:21:00,
2013-03-06 04:32:00,57.0,45.0,-100.00,SE,139,7.0,14.0,65,0.00,,,0.00,0.000000,,2013-03-06 14:32:00,
2013-03-06 05:01:00,55.0,44.0,-100.00,SSE,154,10.0,15.0,67,0.00,,,0.00,0.000000,,2013-03-06 15:01:00,
2013-03-06 05:11:00,55.0,44.0,-100.00,SSE,154,10.0,15.0,67,0.00,,,0.00,0.000000,,2013-03-06 15:11:00,
2013-03-06 05:21:00,55.0,44.0,-100.00,SSE,154,10.0,15.0,67,0.00,,,0.00,0.000000,,2013-03-06 15:21:00,
2013-03-06 05:32:00,55.0,44.0,-100.00,SSE,154,10.0,15.0,67,0.00,,,0.00,0.000000,,2013-03-06 15:32:00,
2013-03-06 05:52:00,56.0,45.0,-100.00,SSE,166,8.0,14.0,67,0.00,,,0.00,0.000000,,2013-03-06 15:52:00,
2013-03-06 06:01:00,56.0,45.0,-100.00,SSE,166,8.0,14.0,67,0.00,,,0.00,0.000000,,2013-03-06 16:01:00,
2013-03-06 06:11:00,56.0,45.0,-100.00,SSE,166,8.0,14.0,67,0.00,,,0.00,0.000000,,2013-03-06 16:11:00,
2013-03-06 06:21:00,56.0,45.0,-100.00,SSE,166,8.0,14.0,67,0.00,,,0.00,0.000000,,2013-03-06 16:21:00,
2013-03-06 06:32:00,56.0,45.0,-100.00,SSE,166,8.0,14.0,67,0.00,,,0.00,0.000000,,2013-03-06 16:32:00,
2013-03-06 07:01:00,55.0,45.0,-100.00,SSE,167,7.0,12.0,69,0.00,,,0.00,0.000000,,2013-03-06 17:01:00,
2013-03-06 07:11:00,55.0,45.0,-100.00,SSE,167,7.0,12.0,69,0.00,,,0.00,0.000000,,2013-03-06 17:11:00,
2013-03-06 07:21:00,55.0,45.0,-100.00,SSE,167,7.0,12.0,69,0.00,,,0.00,0.000000,,2013-03-06 17:21:00,
2013-03-06 07:31:00,55.0,45.0,-100.00,SSE,167,7.0,12.0,69,0.00,,,0.00,0.000000,,2013-03-06 17:31:00,
2013-03-06 08:02:00,59.0,47.0,-100.00,SSE,148,5.0,10.0,64,0.00,,,0.00,72.000000,,2013-03-06 18:02:00,
2013-03-06 08:28:00,59.0,47.0,-100.00,SSE,148,5.0,10.0,64,0.00,,,0.00,72.000000,,2013-03-06 18:28:00,
2013-03-06 08:52:00,70.0,51.0,-100.00,NE,43,1.0,8.0,51,0.00,,,0.00,356.000000,,2013-03-06 18:52:00,
2013-03-06 09:02:00,70.0,51.0,-100.00,NE,43,1.0,8.0,51,0.00,,,0.00,356.000000,,2013-03-06 19:02:00,
2013-03-06 09:11:00,70.0,51.0,-100.00,NE,43,1.0,8.0,51,0.00,,,0.00,356.000000,,2013-03-06 19:11:00,
2013-03-06 09:21:00,70.0,51.0,-100.00,NE,43,1.0,8.0,51,0.00,,,0.00,356.000000,,2013-03-06 19:21:00,
2013-03-06 09:31:00,70.0,51.0,-100.00,NE,43,1.0,8.0,51,0.00,,,0.00,356.000000,,2013-03-06 19:31:00,
2013-03-06 10:01:00,70.0,51.0,-100.00,NNW,343,7.0,11.0,51,0.00,,,0.00,655.000000,,2013-03-06 20:01:00,
2013-03-06 10:11:00,70.0,51.0,-100.00,NNW,343,7.0,11.0,51,0.00,,,0.00,655.000000,,2013-03-06 20:11:00,
2013-03-06 10:22:00,70.0,51.0,-100.00,NNW,343,7.0,11.0,51,0.00,,,0.00,655.000000,,2013-03-06 20:22:00,
2013-03-06 10:32:00,70.0,51.0,-100.00,NNW,343,7.0,11.0,51,0.00,,,0.00,655.000000,,2013-03-06 20:32:00,
2013-03-06 11:02:00,72.0,51.0,-100.00,WNW,298,4.0,14.0,48,0.00,,,0.00,943.000000,,2013-03-06 21:02:00,
2013-03-06 11:11:00,72.0,51.0,-100.00,WNW,298,4.0,14.0,48,0.00,,,0.00,943.000000,,2013-03-06 21:11:00,
2013-03-06 11:22:00,72.0,51.0,-100.00,WNW,298,4.0,14.0,48,0.00,,,0.00,943.000000,,2013-03-06 21:22:00,
2013-03-06 11:31:00,72.0,51.0,-100.00,WNW,298,4.0,14.0,48,0.00,,,0.00,943.000000,,2013-03-06 21:31:00,
2013-03-06 12:01:00,74.0,50.0,-100.00,WNW,282,5.0,13.0,43,0.00,,,0.00,1079.000000,,2013-03-06 22:01:00,
2013-03-06 12:11:00,74.0,50.0,-100.00,WNW,282,5.0,13.0,43,0.00,,,0.00,1079.000000,,2013-03-06 22:11:00,
2013-03-06 12:21:00,74.0,50.0,-100.00,WNW,282,5.0,13.0,43,0.00,,,0.00,1079.000000,,2013-03-06 22:21:00,
2013-03-06 12:31:00,74.0,50.0,-100.00,WNW,282,5.0,13.0,43,0.00,,,0.00,1079.000000,,2013-03-06 22:31:00,
2013-03-06 12:52:00,71.0,52.0,-100.00,NNW,330,8.0,16.0,51,0.00,,,0.00,816.000000,,2013-03-06 22:52:00,
2013-03-06 13:01:00,71.0,52.0,-100.00,NNW,330,8.0,16.0,51,0.00,,,0.00,816.000000,,2013-03-06 23:01:00,
2013-03-06 13:11:00,71.0,52.0,-100.00,NNW,330,8.0,16.0,51,0.00,,,0.00,816.000000,,2013-03-06 23:11:00,
2013-03-06 13:21:00,71.0,52.0,-100.00,NNW,330,8.0,16.0,51,0.00,,,0.00,816.000000,,2013-03-06 23:21:00,
2013-03-06 13:31:00,71.0,52.0,-100.00,NNW,330,8.0,16.0,51,0.00,,,0.00,816.000000,,2013-03-06 23:31:00,
2013-03-06 14:01:00,68.0,55.0,-100.00,NW,307,9.0,17.0,63,0.00,,,0.00,296.000000,,2013-03-07 00:01:00,
2013-03-06 14:11:00,68.0,55.0,-100.00,NW,307,9.0,17.0,63,0.00,,,0.00,296.000000,,2013-03-07 00:11:00,
2013-03-06 14:21:00,68.0,55.0,-100.00,NW,307,9.0,17.0,63,0.00,,,0.00,296.000000,,2013-03-07 00:21:00,
2013-03-06 14:32:00,68.0,55.0,-100.00,NW,307,9.0,17.0,63,0.00,,,0.00,296.000000,,2013-03-07 00:32:00,
2013-03-06 15:01:00,66.0,56.0,-100.00,NW,319,8.0,14.0,70,0.00,,,0.00,121.000000,,2013-03-07 01:01:00,
2013-03-06 15:11:00,66.0,56.0,-100.00,NW,319,8.0,14.0,70,0.00,,,0.00,121.000000,,2013-03-07 01:11:00,
2013-03-06 15:21:00,66.0,56.0,-100.00,NW,319,8.0,14.0,70,0.00,,,0.00,121.000000,,2013-03-07 01:21:00,
2013-03-06 15:31:00,66.0,56.0,-100.00,NW,319,8.0,14.0,70,0.00,,,0.00,121.000000,,2013-03-07 01:31:00,
2013-03-06 15:52:00,65.0,58.0,-100.00,West,271,3.0,11.0,78,0.00,,,0.00,73.000000,,2013-03-07 01:52:00,
2013-03-06 16:01:00,65.0,58.0,-100.00,West,271,3.0,11.0,78,0.00,,,0.00,73.000000,,2013-03-07 02:01:00,
2013-03-06 16:11:00,65.0,58.0,-100.00,West,271,3.0,11.0,78,0.00,,,0.00,73.000000,,2013-03-07 02:11:00,
2013-03-06 16:21:00,65.0,58.0,-100.00,West,271,3.0,11.0,78,0.00,,,0.00,73.000000,,2013-03-07 02:21:00,
2013-03-06 16:31:00,65.0,58.0,-100.00,West,271,3.0,11.0,78,0.00,,,0.00,73.000000,,2013-03-07 02:31:00,
2013-03-06 17:01:00,63.0,54.0,-100.00,WNW,283,2.0,7.0,73,0.00,,,0.00,56.000000,,2013-03-07 03:01:00,
2013-03-06 17:11:00,63.0,54.0,-100.00,WNW,283,2.0,7.0,73,0.00,,,0.00,56.000000,,2013-03-07 03:11:00,
2013-03-06 17:21:00,63.0,54.0,-100.00,WNW,283,2.0,7.0,73,0.00,,,0.00,56.000000,,2013-03-07 03:21:00,
2013-03-06 17:31:00,63.0,54.0,-100.00,WNW,283,2.0,7.0,73,0.00,,,0.00,56.000000,,2013-03-07 03:31:00,
2013-03-06 18:01:00,63.0,55.0,-100.00,SW,226,0.0,6.0,76,0.00,,,0.00,34.000000,,2013-03-07 04:01:00,
2013-03-06 18:11:00,63.0,55.0,-100.00,SW,226,0.0,6.0,76,0.00,,,0.00,34.000000,,2013-03-07 04:11:00,
2013-03-06 18:21:00,63.0,55.0,-100.00,SW,226,0.0,6.0,76,0.00,,,0.00,34.000000,,2013-03-07 04:21:00,
2013-03-06 18:31:00,63.0,55.0,-100.00,SW,226,0.0,6.0,76,0.00,,,0.00,34.000000,,2013-03-07 04:31:00,
2013-03-06 18:52:00,63.0,56.0,-100.00,WNW,287,0.0,2.0,77,0.00,,,0.00,11.000000,,2013-03-07 04:52:00,
2013-03-06 19:01:00,63.0,56.0,-100.00,WNW,287,0.0,2.0,77,0.00,,,0.00,11.000000,,2013-03-07 05:01:00,
2013-03-06 19:12:00,63.0,56.0,-100.00,WNW,287,0.0,2.0,77,0.00,,,0.00,11.000000,,2013-03-07 05:12:00,
2013-03-06 19:22:00,63.0,56.0,-100.00,WNW,287,0.0,2.0,77,0.00,,,0.00,11.000000,,2013-03-07 05:22:00,
2013-03-06 19:31:00,63.0,56.0,-100.00,WNW,287,0.0,2.0,77,0.00,,,0.00,11.000000,,2013-03-07 05:31:00,
2013-03-06 20:01:00,64.0,57.0,-100.00,West,274,0.0,5.0,78,0.00,,,0.00,0.000000,,2013-03-07 06:01:00,
2013-03-06 20:11:00,64.0,57.0,-100.00,West,274,0.0,5.0,78,0.00,,,0.00,0.000000,,2013-03-07 06:11:00,
2013-03-06 20:21:00,64.0,57.0,-100.00,West,274,0.0,5.0,78,0.00,,,0.00,0.000000,,2013-03-07 06:21:00,
2013-03-06 20:31:00,64.0,57.0,-100.00,West,274,0.0,5.0,78,0.00,,,0.00,0.000000,,2013-03-07 06:31:00,
2013-03-06 20:52:00,62.0,58.0,-100.00,NW,312,1.0,6.0,86,0.00,,,0.00,0.000000,,2013-03-07 06:52:00,
2013-03-06 21:01:00,62.0,58.0,-100.00,NW,312,1.0,6.0,86,0.00,,,0.00,0.000000,,2013-03-07 07:01:00,
2013-03-06 21:11:00,62.0,58.0,-100.00,NW,312,1.0,6.0,86,0.00,,,0.00,0.000000,,2013-03-07 07:11:00,
2013-03-06 21:21:00,62.0,58.0,-100.00,NW,312,1.0,6.0,86,0.00,,,0.00,0.000000,,2013-03-07 07:21:00,
2013-03-06 21:31:00,62.0,58.0,-100.00,NW,312,1.0,6.0,86,0.00,,,0.00,0.000000,,2013-03-07 07:31:00,
2013-03-06 22:02:00,63.0,60.0,-100.00,ENE,63,1.0,4.0,89,0.00,,,0.00,0.000000,,2013-03-07 08:02:00,
2013-03-06 22:11:00,63.0,60.0,-100.00,ENE,63,1.0,4.0,89,0.00,,,0.00,0.000000,,2013-03-07 08:11:00,
2013-03-06 22:22:00,63.0,60.0,-100.00,ENE,63,1.0,4.0,89,0.00,,,0.00,0.000000,,2013-03-07 08:22:00,
2013-03-06 22:32:00,63.0,60.0,-100.00,ENE,63,1.0,4.0,89,0.00,,,0.00,0.000000,,2013-03-07 08:32:00,
2013-03-06 22:54:00,59.0,54.0,-100.00,SE,127,7.0,8.0,85,0.00,,,0.00,0.000000,,2013-03-07 08:54:00,
2013-03-06 23:02:00,59.0,54.0,-100.00,SE,127,7.0,8.0,85,0.00,,,0.00,0.000000,,2013-03-07 09:02:00,
2013-03-06 23:12:00,59.0,54.0,-100.00,SE,127,7.0,8.0,85,0.00,,,0.00,0.000000,,2013-03-07 09:12:00,
2013-03-06 23:22:00,59.0,54.0,-100.00,SE,127,7.0,8.0,85,0.00,,,0.00,0.000000,,2013-03-07 09:22:00,
2013-03-06 23:32:00,59.0,54.0,-100.00,SE,127,7.0,8.0,85,0.00,,,0.00,0.000000,,2013-03-07 09:32:00,
2013-03-06 23:53:00,59.0,48.0,-100.00,SE,131,6.0,13.0,68,0.00,,,0.00,0.000000,,2013-03-07 09:53:00,